createdAt,value
2023-02-17T00:00:46.371Z,86.80
2023-02-17T00:03:12.706Z,86.23
2023-02-17T00:05:39.006Z,86.46
2023-02-17T00:08:05.322Z,86.87
2023-02-17T00:10:31.630Z,87.76
2023-02-17T00:12:57.958Z,87.52
2023-02-17T00:15:24.302Z,88.27
2023-02-17T00:17:50.712Z,88.14
2023-02-17T00:20:17.034Z,87.93
2023-02-17T00:22:43.372Z,87.80
2023-02-17T00:25:09.679Z,87.50
2023-02-17T00:27:35.990Z,86.96
2023-02-17T00:30:02.358Z,86.71
2023-02-17T00:32:28.711Z,86.71
2023-02-17T00:34:57.007Z,86.88
2023-02-17T00:37:23.318Z,86.49
2023-02-17T00:39:49.656Z,87.01
2023-02-17T00:42:15.997Z,86.99
2023-02-17T00:44:42.305Z,87.42
2023-02-17T00:47:08.627Z,87.05
2023-02-17T00:49:34.964Z,86.78
2023-02-17T00:52:02.046Z,86.63
2023-02-17T00:54:28.393Z,87.01
2023-02-17T00:56:54.738Z,87.49
2023-02-17T00:59:21.075Z,89.12
2023-02-17T01:01:47.404Z,88.70
2023-02-17T01:04:13.849Z,88.51
2023-02-17T01:06:40.183Z,87.32
2023-02-17T01:09:06.522Z,86.60
2023-02-17T01:11:32.876Z,86.60
2023-02-17T01:13:59.175Z,86.52
2023-02-17T01:16:25.540Z,86.20
2023-02-17T01:18:51.884Z,85.68
2023-02-17T01:21:18.216Z,85.37
2023-02-17T01:23:44.604Z,86.44
2023-02-17T01:26:10.945Z,86.31
2023-02-17T01:28:37.277Z,86.32
2023-02-17T01:31:03.653Z,85.88
2023-02-17T01:33:30.027Z,85.66
2023-02-17T01:35:56.349Z,85.62
2023-02-17T01:38:22.653Z,85.69
2023-02-17T01:40:49.014Z,85.73
2023-02-17T01:43:15.313Z,85.87
2023-02-17T01:45:41.703Z,86.03
2023-02-17T01:48:08.043Z,86.08
2023-02-17T01:50:34.402Z,85.55
2023-02-17T01:53:00.734Z,85.71
2023-02-17T01:55:27.166Z,86.41
2023-02-17T01:57:53.489Z,86.07
2023-02-17T02:00:19.806Z,86.72
2023-02-17T02:02:46.213Z,86.32
2023-02-17T02:05:12.646Z,86.16
2023-02-17T02:07:39.112Z,85.80
2023-02-17T02:10:05.539Z,85.98
2023-02-17T02:12:31.865Z,85.90
2023-02-17T02:14:58.200Z,85.81
2023-02-17T02:17:24.539Z,86.51
2023-02-17T02:19:50.878Z,86.51
2023-02-17T02:22:17.193Z,87.35
2023-02-17T02:24:43.503Z,87.85
2023-02-17T02:27:09.810Z,88.35
2023-02-17T02:29:36.123Z,88.44
2023-02-17T02:32:02.536Z,88.69
2023-02-17T02:34:28.904Z,88.38
2023-02-17T02:36:55.218Z,88.97
2023-02-17T02:39:21.719Z,89.39
2023-02-17T02:41:48.056Z,88.81
2023-02-17T02:44:14.370Z,88.62
2023-02-17T02:46:40.705Z,88.69
2023-02-17T02:49:07.027Z,89.17
2023-02-17T02:51:33.374Z,89.26
2023-02-17T02:53:59.700Z,89.37
2023-02-17T02:56:26.070Z,88.75
2023-02-17T02:58:52.431Z,89.04
2023-02-17T03:01:18.886Z,90.18
2023-02-17T03:03:45.255Z,90.88
2023-02-17T03:06:11.589Z,90.71
2023-02-17T03:08:37.962Z,91.07
2023-02-17T03:11:04.294Z,90.40
2023-02-17T03:13:30.664Z,90.39
2023-02-17T03:15:56.987Z,89.78
2023-02-17T03:18:23.293Z,91.11
2023-02-17T03:20:50.078Z,87.56
2023-02-17T03:23:16.415Z,87.74
2023-02-17T03:25:45.140Z,85.42
2023-02-17T03:28:11.513Z,85.17
2023-02-17T03:30:38.291Z,84.23
2023-02-17T03:33:04.626Z,84.14
2023-02-17T03:35:30.948Z,83.69
2023-02-17T03:37:57.277Z,83.31
2023-02-17T03:40:23.574Z,82.79
2023-02-17T03:42:49.902Z,83.04
2023-02-17T03:45:16.245Z,82.84
2023-02-17T03:47:42.597Z,82.08
2023-02-17T03:50:08.962Z,81.97
2023-02-17T03:52:35.254Z,81.95
2023-02-17T03:55:01.606Z,81.64
2023-02-17T03:57:27.988Z,82.13
2023-02-17T03:59:54.319Z,82.39
2023-02-17T04:02:20.721Z,82.49
2023-02-17T04:04:47.014Z,82.30
2023-02-17T04:07:13.332Z,82.19
2023-02-17T04:09:39.667Z,82.37
2023-02-17T04:12:05.970Z,81.89
2023-02-17T04:14:32.325Z,82.38
2023-02-17T04:16:58.659Z,82.15
2023-02-17T04:19:24.985Z,82.65
2023-02-17T04:21:51.313Z,84.10
2023-02-17T04:24:17.616Z,85.21
2023-02-17T04:26:43.929Z,86.71
2023-02-17T04:29:10.246Z,89.10
2023-02-17T04:31:36.691Z,91.26
2023-02-17T04:34:03.049Z,92.96
2023-02-17T04:36:29.369Z,94.38
2023-02-17T04:38:55.686Z,95.08
2023-02-17T04:41:22.021Z,95.93
2023-02-17T04:43:48.457Z,96.28
2023-02-17T04:46:14.800Z,95.99
2023-02-17T04:48:41.139Z,95.41
2023-02-17T04:51:07.485Z,95.20
2023-02-17T04:53:33.831Z,95.19
2023-02-17T04:56:00.208Z,95.25
2023-02-17T04:58:26.570Z,95.44
2023-02-17T05:00:52.863Z,94.99
2023-02-17T05:03:19.228Z,95.09
2023-02-17T05:05:45.546Z,94.93
2023-02-17T05:08:11.894Z,95.21
2023-02-17T05:10:38.256Z,94.38
2023-02-17T05:13:04.569Z,94.10
2023-02-17T05:15:32.527Z,94.72
2023-02-17T05:18:00.055Z,94.42
2023-02-17T05:20:26.409Z,95.87
2023-02-17T05:22:52.722Z,97.34
2023-02-17T05:25:19.036Z,98.78
2023-02-17T05:27:45.362Z,99.98
2023-02-17T05:30:11.691Z,100.00
2023-02-17T05:32:38.098Z,100.00
2023-02-17T05:35:04.428Z,100.00
2023-02-17T05:37:30.736Z,100.00
2023-02-17T05:39:57.043Z,100.00
2023-02-17T05:42:23.375Z,100.00
2023-02-17T05:44:49.670Z,100.00
2023-02-17T05:47:15.997Z,100.00
2023-02-17T05:49:42.327Z,100.00
2023-02-17T05:52:08.670Z,100.00
2023-02-17T05:54:35.059Z,100.00
2023-02-17T05:57:01.379Z,100.00
2023-02-17T05:59:27.778Z,100.00
2023-02-17T06:01:54.136Z,100.00
2023-02-17T06:04:20.487Z,100.00
2023-02-17T06:06:47.002Z,99.93
2023-02-17T06:09:13.352Z,99.31
2023-02-17T06:11:39.685Z,99.93
2023-02-17T06:14:06.007Z,99.53
2023-02-17T06:16:32.401Z,98.39
2023-02-17T06:19:00.180Z,98.69
2023-02-17T06:21:26.517Z,97.83
2023-02-17T06:23:52.885Z,97.74
2023-02-17T06:26:19.227Z,97.28
2023-02-17T06:28:45.729Z,97.45
2023-02-17T06:31:12.185Z,97.46
2023-02-17T06:33:38.533Z,97.03
2023-02-17T06:36:05.244Z,96.66
2023-02-17T06:38:31.806Z,96.32
2023-02-17T06:40:58.159Z,95.47
2023-02-17T06:43:24.506Z,95.02
2023-02-17T06:45:50.889Z,94.91
2023-02-17T06:48:17.231Z,94.74
2023-02-17T06:50:43.599Z,94.84
2023-02-17T06:53:09.946Z,94.25
2023-02-17T06:55:37.391Z,93.43
2023-02-17T06:58:03.720Z,93.56
2023-02-17T07:00:30.267Z,92.93
2023-02-17T07:02:56.700Z,92.93
2023-02-17T07:05:23.096Z,92.20
2023-02-17T07:07:49.454Z,91.98
2023-02-17T07:10:15.772Z,92.30
2023-02-17T07:12:42.093Z,91.66
2023-02-17T07:15:12.084Z,91.22
2023-02-17T07:17:38.830Z,90.73
2023-02-17T07:20:05.159Z,91.17
2023-02-17T07:22:31.477Z,90.75
2023-02-17T07:24:57.794Z,90.43
2023-02-17T07:27:24.183Z,90.32
2023-02-17T07:29:50.514Z,90.36
2023-02-17T07:32:17.041Z,90.16
2023-02-17T07:34:44.189Z,90.24
2023-02-17T07:37:10.536Z,90.11
2023-02-17T07:39:36.899Z,90.10
2023-02-17T07:42:05.186Z,90.25
2023-02-17T07:44:31.527Z,90.30
2023-02-17T07:46:57.839Z,90.90
2023-02-17T07:49:24.170Z,90.60
2023-02-17T07:51:50.497Z,90.74
2023-02-17T07:54:17.415Z,90.44
2023-02-17T07:56:43.796Z,89.96
2023-02-17T07:59:10.212Z,90.20
2023-02-17T08:01:36.566Z,90.20
2023-02-17T08:04:02.953Z,90.12
2023-02-17T08:06:29.356Z,90.46
2023-02-17T08:09:14.665Z,90.34
2023-02-17T08:11:59.626Z,90.29
2023-02-17T08:14:25.959Z,89.68
2023-02-17T08:16:52.350Z,90.06
2023-02-17T08:19:18.716Z,89.81
2023-02-17T08:21:45.092Z,89.97
2023-02-17T08:24:12.339Z,89.47
2023-02-17T08:26:38.688Z,89.44
2023-02-17T08:29:05.054Z,88.85
2023-02-17T08:31:31.489Z,88.75
2023-02-17T08:33:57.967Z,88.94
2023-02-17T08:36:24.866Z,88.62
2023-02-17T08:38:51.392Z,89.16
2023-02-17T08:41:17.698Z,89.25
2023-02-17T08:43:44.045Z,88.92
2023-02-17T08:46:10.387Z,88.69
2023-02-17T08:48:37.196Z,88.74
2023-02-17T08:51:03.677Z,88.42
2023-02-17T08:53:30.059Z,88.22
2023-02-17T08:55:56.405Z,88.23
2023-02-17T08:58:22.791Z,88.23
2023-02-17T09:00:49.157Z,87.90
2023-02-17T09:03:15.477Z,86.90
2023-02-17T09:05:44.350Z,87.17
2023-02-17T09:08:11.164Z,86.49
2023-02-17T09:10:37.493Z,86.49
2023-02-17T09:13:03.807Z,86.35
2023-02-17T09:15:30.210Z,85.67
2023-02-17T09:17:56.629Z,85.31
2023-02-17T09:20:25.349Z,85.35
2023-02-17T09:22:52.484Z,84.86
2023-02-17T09:25:18.947Z,83.88
2023-02-17T09:27:45.292Z,84.09
2023-02-17T09:30:11.708Z,82.87
2023-02-17T09:32:38.095Z,82.61
2023-02-17T09:35:06.197Z,81.58
2023-02-17T09:37:32.539Z,81.31
2023-02-17T09:39:58.849Z,80.40
2023-02-17T09:42:25.250Z,80.36
2023-02-17T09:44:52.370Z,80.45
2023-02-17T09:47:19.041Z,79.47
2023-02-17T09:49:45.623Z,79.08
2023-02-17T09:52:11.947Z,77.84
2023-02-17T09:54:38.305Z,79.24
2023-02-17T09:57:04.712Z,78.82
2023-02-17T09:59:31.096Z,77.42
2023-02-17T10:01:57.399Z,76.84
2023-02-17T10:04:23.882Z,76.01
2023-02-17T10:06:50.301Z,75.68
2023-02-17T10:09:16.748Z,75.85
2023-02-17T10:11:43.425Z,75.34
2023-02-17T10:14:09.805Z,76.69
2023-02-17T10:16:36.267Z,75.30
2023-02-17T10:19:02.653Z,75.38
2023-02-17T10:21:29.105Z,75.98
2023-02-17T10:23:55.466Z,75.72
2023-02-17T10:26:21.884Z,76.62
2023-02-17T10:28:48.247Z,76.32
2023-02-17T10:31:14.672Z,76.18
2023-02-17T10:33:41.167Z,75.93
2023-02-17T10:36:07.828Z,75.85
2023-02-17T10:38:34.305Z,76.13
2023-02-17T10:41:00.632Z,75.27
2023-02-17T10:43:27.313Z,75.40
2023-02-17T10:45:53.812Z,75.22
2023-02-17T10:48:20.127Z,75.16
2023-02-17T10:50:46.446Z,75.53
2023-02-17T10:53:12.786Z,74.72
2023-02-17T10:55:39.184Z,75.05
2023-02-17T10:58:05.734Z,75.47
2023-02-17T11:00:32.288Z,75.08
2023-02-17T11:02:58.625Z,75.35
2023-02-17T11:05:24.946Z,75.22
2023-02-17T11:07:51.292Z,76.05
2023-02-17T11:10:17.694Z,75.60
2023-02-17T11:12:44.019Z,75.33
2023-02-17T11:15:10.346Z,76.23
2023-02-17T11:17:36.713Z,76.12
2023-02-17T11:20:04.648Z,77.31
2023-02-17T11:22:31.222Z,77.54
2023-02-17T11:24:57.534Z,76.66
2023-02-17T11:27:23.852Z,77.01
2023-02-17T11:29:50.362Z,78.38
2023-02-17T11:32:16.812Z,80.02
2023-02-17T11:34:43.213Z,79.89
2023-02-17T11:37:09.563Z,80.82
2023-02-17T11:39:35.901Z,81.75
2023-02-17T11:42:02.212Z,82.70
2023-02-17T11:44:28.596Z,83.28
2023-02-17T11:46:54.949Z,82.77
2023-02-17T11:49:21.255Z,81.47
2023-02-17T11:51:47.590Z,82.23
2023-02-17T11:54:13.923Z,82.15
2023-02-17T11:56:40.230Z,81.87
2023-02-17T11:59:06.582Z,82.38
2023-02-17T12:01:33.219Z,82.13
2023-02-17T12:03:59.650Z,80.16
2023-02-17T12:06:26.038Z,80.26
2023-02-17T12:08:52.348Z,80.25
2023-02-17T12:11:18.773Z,82.37
2023-02-17T12:13:45.120Z,82.15
2023-02-17T12:16:11.464Z,82.00
2023-02-17T12:18:38.427Z,82.22
2023-02-17T12:21:04.769Z,81.73
2023-02-17T12:23:31.111Z,82.12
2023-02-17T12:25:57.464Z,81.95
2023-02-17T12:28:23.771Z,82.69
2023-02-17T12:30:50.229Z,81.95
2023-02-17T12:33:16.577Z,82.46
2023-02-17T12:35:42.877Z,82.34
2023-02-17T12:38:09.189Z,81.14
2023-02-17T12:40:35.520Z,81.47
2023-02-17T12:43:01.958Z,81.61
2023-02-17T12:45:28.271Z,80.66
2023-02-17T12:47:55.387Z,80.89
2023-02-17T12:50:21.734Z,80.71
2023-02-17T12:52:48.053Z,79.53
2023-02-17T12:55:14.354Z,79.84
2023-02-17T12:57:40.665Z,79.72
2023-02-17T13:00:06.957Z,80.11
2023-02-17T13:02:33.612Z,79.20
2023-02-17T13:04:59.936Z,79.50
2023-02-17T13:07:26.628Z,79.98
2023-02-17T13:09:52.976Z,80.21
2023-02-17T13:12:19.345Z,78.87
2023-02-17T13:14:45.957Z,78.39
2023-02-17T13:17:12.279Z,78.32
2023-02-17T13:19:38.656Z,78.08
2023-02-17T13:22:05.748Z,78.17
2023-02-17T13:24:32.144Z,77.61
2023-02-17T13:26:58.511Z,77.83
2023-02-17T13:29:24.898Z,76.85
2023-02-17T13:31:51.462Z,77.22
2023-02-17T13:34:17.860Z,77.39
2023-02-17T13:36:44.262Z,76.64
2023-02-17T13:39:10.561Z,75.91
2023-02-17T13:41:36.879Z,75.73
2023-02-17T13:44:03.322Z,75.85
2023-02-17T13:46:29.685Z,76.01
2023-02-17T13:48:56.057Z,75.79
2023-02-17T13:51:22.398Z,75.00
2023-02-17T13:53:48.719Z,75.50
2023-02-17T13:56:15.024Z,76.69
2023-02-17T13:58:41.388Z,75.52
2023-02-17T14:01:07.747Z,76.20
2023-02-17T14:03:34.125Z,75.01
2023-02-17T14:06:00.490Z,74.91
2023-02-17T14:08:29.839Z,73.82
2023-02-17T14:10:56.168Z,74.53
2023-02-17T14:13:22.474Z,73.70
2023-02-17T14:15:48.830Z,73.95
2023-02-17T14:18:15.161Z,74.00
2023-02-17T14:20:41.485Z,72.80
2023-02-17T14:23:07.821Z,72.88
2023-02-17T14:25:34.144Z,72.92
2023-02-17T14:28:00.465Z,72.61
2023-02-17T14:30:26.817Z,71.55
2023-02-17T14:32:53.154Z,71.10
2023-02-17T14:35:19.981Z,72.11
2023-02-17T14:37:46.349Z,72.12
2023-02-17T14:40:12.700Z,71.75
2023-02-17T14:42:39.045Z,73.05
2023-02-17T14:45:05.379Z,72.93
2023-02-17T14:47:31.729Z,73.19
2023-02-17T14:49:58.079Z,72.53
2023-02-17T14:52:24.413Z,72.96
2023-02-17T14:54:50.751Z,72.48
2023-02-17T14:57:17.134Z,72.69
2023-02-17T14:59:43.521Z,73.50
2023-02-17T15:02:09.858Z,73.17
2023-02-17T15:04:36.197Z,73.15
2023-02-17T15:07:02.525Z,72.99
2023-02-17T15:09:28.949Z,73.25
2023-02-17T15:11:55.275Z,72.78
2023-02-17T15:14:21.623Z,72.65
2023-02-17T15:16:47.935Z,73.44
2023-02-17T15:19:14.245Z,73.20
2023-02-17T15:21:40.554Z,73.22
2023-02-17T15:24:06.881Z,73.87
2023-02-17T15:26:33.235Z,73.64
2023-02-17T15:28:59.626Z,74.44
2023-02-17T15:31:26.074Z,74.07
2023-02-17T15:33:52.445Z,74.32
2023-02-17T15:36:18.821Z,74.75
2023-02-17T15:38:45.215Z,75.33
2023-02-17T15:41:11.566Z,75.69
2023-02-17T15:43:37.917Z,76.10
2023-02-17T15:46:04.366Z,76.08
2023-02-17T15:48:31.982Z,76.64
2023-02-17T15:50:58.300Z,76.64
2023-02-17T15:53:24.632Z,76.90
2023-02-17T15:55:51.253Z,77.31
2023-02-17T15:58:17.592Z,77.67
2023-02-17T16:00:46.158Z,77.51
2023-02-17T16:03:13.561Z,77.97
2023-02-17T16:05:39.979Z,78.06
2023-02-17T16:08:06.350Z,78.59
2023-02-17T16:10:32.654Z,78.57
2023-02-17T16:12:59.006Z,78.39
2023-02-17T16:15:25.391Z,78.75
2023-02-17T16:17:51.713Z,79.04
2023-02-17T16:20:18.126Z,78.99
2023-02-17T16:22:44.466Z,79.17
2023-02-17T16:25:10.796Z,79.44
2023-02-17T16:27:38.814Z,79.32
2023-02-17T16:30:05.194Z,78.62
2023-02-17T16:32:33.897Z,79.03
2023-02-17T16:35:01.146Z,79.70
2023-02-17T16:37:27.475Z,79.43
2023-02-17T16:39:53.773Z,79.42
2023-02-17T16:42:20.089Z,79.31
2023-02-17T16:44:46.429Z,78.82
2023-02-17T16:47:12.767Z,78.64
2023-02-17T16:49:40.766Z,78.48
2023-02-17T16:52:07.292Z,78.70
2023-02-17T16:54:35.606Z,77.20
2023-02-17T16:57:02.245Z,77.75
2023-02-17T16:59:28.682Z,78.57
2023-02-17T17:01:55.018Z,79.00
2023-02-17T17:04:21.340Z,79.38
2023-02-17T17:06:47.737Z,79.25
2023-02-17T17:09:14.052Z,79.34
2023-02-17T17:11:40.403Z,78.59
2023-02-17T17:14:06.788Z,78.20
2023-02-17T17:16:34.782Z,78.85
2023-02-17T17:19:01.162Z,79.15
2023-02-17T17:21:27.491Z,79.02
2023-02-17T17:23:53.838Z,78.45
2023-02-17T17:26:20.249Z,77.95
2023-02-17T17:28:49.154Z,77.92
2023-02-17T17:31:15.485Z,77.28
2023-02-17T17:33:41.840Z,77.28
2023-02-17T17:36:08.499Z,77.65
2023-02-17T17:38:35.171Z,77.74
2023-02-17T17:41:05.199Z,77.11
2023-02-17T17:43:31.510Z,77.12
2023-02-17T17:45:57.912Z,76.88
2023-02-17T17:48:24.231Z,76.72
2023-02-17T17:50:50.562Z,76.80
2023-02-17T17:53:16.882Z,76.84
2023-02-17T17:55:43.195Z,77.01
2023-02-17T17:58:09.506Z,77.53
2023-02-17T18:00:35.819Z,77.22
2023-02-17T18:03:02.131Z,76.68
2023-02-17T18:05:28.484Z,76.32
2023-02-17T18:07:54.864Z,76.64
2023-02-17T18:10:21.188Z,76.84
2023-02-17T18:12:47.578Z,76.95
2023-02-17T18:15:13.937Z,77.92
2023-02-17T18:17:40.319Z,77.96
2023-02-17T18:20:07.134Z,78.26
2023-02-17T18:22:34.365Z,79.06
2023-02-17T18:25:00.672Z,79.46
2023-02-17T18:27:27.029Z,80.52
2023-02-17T18:29:53.557Z,84.06
2023-02-17T18:32:22.126Z,89.37
2023-02-17T18:34:48.483Z,94.94
2023-02-17T18:37:16.008Z,99.75
2023-02-17T18:39:42.305Z,100.00
2023-02-17T18:42:10.271Z,100.00
2023-02-17T18:44:39.792Z,100.00
2023-02-17T18:47:06.098Z,100.00
2023-02-17T18:49:32.504Z,100.00
2023-02-17T18:51:58.829Z,100.00
2023-02-17T18:54:25.263Z,100.00
2023-02-17T18:56:51.734Z,100.00
2023-02-17T18:59:18.273Z,100.00
2023-02-17T19:01:44.694Z,100.00
2023-02-17T19:04:12.981Z,100.00
2023-02-17T19:06:39.324Z,100.00
2023-02-17T19:09:05.634Z,100.00
2023-02-17T19:11:31.972Z,100.00
2023-02-17T19:13:58.330Z,100.00
2023-02-17T19:16:24.721Z,100.00
2023-02-17T19:18:51.045Z,100.00
2023-02-17T19:21:17.381Z,100.00
2023-02-17T19:23:43.933Z,100.00
2023-02-17T19:26:10.429Z,100.00
2023-02-17T19:28:36.789Z,100.00
2023-02-17T19:31:04.421Z,100.00
2023-02-17T19:33:31.336Z,100.00
2023-02-17T19:35:57.722Z,100.00
2023-02-17T19:38:24.146Z,100.00
2023-02-17T19:40:50.460Z,100.00
2023-02-17T19:43:16.762Z,100.00
2023-02-17T19:45:43.650Z,100.00
2023-02-17T19:48:09.970Z,100.00
2023-02-17T19:50:36.271Z,100.00
2023-02-17T19:53:03.008Z,100.00
2023-02-17T19:55:29.303Z,100.00
2023-02-17T19:57:55.664Z,100.00
2023-02-17T20:00:22.014Z,100.00
2023-02-17T20:02:48.397Z,100.00
2023-02-17T20:05:14.767Z,100.00
2023-02-17T20:07:41.202Z,100.00
2023-02-17T20:10:10.801Z,100.00
2023-02-17T20:12:37.406Z,100.00
2023-02-17T20:15:03.733Z,100.00
2023-02-17T20:17:30.037Z,100.00
2023-02-17T20:19:56.579Z,100.00
2023-02-17T20:22:22.905Z,100.00
2023-02-17T20:24:49.461Z,100.00
2023-02-17T20:27:15.854Z,100.00
2023-02-17T20:29:42.176Z,100.00
2023-02-17T20:32:08.634Z,100.00
2023-02-17T20:34:35.852Z,99.88
2023-02-17T20:37:02.650Z,99.02
2023-02-17T20:39:28.989Z,97.10
2023-02-17T20:41:55.313Z,97.06
2023-02-17T20:44:21.745Z,97.12
2023-02-17T20:46:48.263Z,96.69
2023-02-17T20:49:15.166Z,96.25
2023-02-17T20:51:41.492Z,94.40
2023-02-17T20:54:07.826Z,95.04
2023-02-17T20:56:34.365Z,95.02
2023-02-17T20:59:00.669Z,94.96
2023-02-17T21:01:28.763Z,95.68
2023-02-17T21:03:55.087Z,96.15
2023-02-17T21:06:21.462Z,96.32
2023-02-17T21:08:47.951Z,95.78
2023-02-17T21:11:14.281Z,95.80
2023-02-17T21:13:40.631Z,95.72
2023-02-17T21:16:07.248Z,95.17
2023-02-17T21:18:33.778Z,95.66
2023-02-17T21:21:00.095Z,95.49
2023-02-17T21:23:26.456Z,95.07
2023-02-17T21:25:53.178Z,94.28
2023-02-17T21:28:19.505Z,93.14
2023-02-17T21:30:45.830Z,91.85
2023-02-17T21:33:12.160Z,92.09
2023-02-17T21:35:38.457Z,92.43
2023-02-17T21:38:04.761Z,91.94
2023-02-17T21:40:31.146Z,91.78
2023-02-17T21:43:16.332Z,92.28
2023-02-17T21:45:44.903Z,91.82
2023-02-17T21:48:11.244Z,92.17
2023-02-17T21:50:37.584Z,90.93
2023-02-17T21:53:03.898Z,89.20
2023-02-17T21:55:30.222Z,89.09
2023-02-17T21:57:56.641Z,88.55
2023-02-17T22:00:22.969Z,88.18
2023-02-17T22:02:49.296Z,87.81
2023-02-17T22:05:15.671Z,87.63
2023-02-17T22:07:41.987Z,88.43
2023-02-17T22:10:08.346Z,88.85
2023-02-17T22:12:34.686Z,88.14
2023-02-17T22:15:02.660Z,90.81
2023-02-17T22:17:28.957Z,96.25
2023-02-17T22:19:55.366Z,97.86
2023-02-17T22:22:21.825Z,98.26
2023-02-17T22:24:48.144Z,99.03
2023-02-17T22:27:14.622Z,98.80
2023-02-17T22:29:40.925Z,97.20
2023-02-17T22:32:07.255Z,97.60
2023-02-17T22:34:33.601Z,95.72
2023-02-17T22:36:59.925Z,94.85
2023-02-17T22:39:26.233Z,94.49
2023-02-17T22:41:52.559Z,93.66
2023-02-17T22:44:18.876Z,93.65
2023-02-17T22:46:45.200Z,92.53
2023-02-17T22:49:12.023Z,93.50
2023-02-17T22:51:38.343Z,95.04
2023-02-17T22:54:04.667Z,96.30
2023-02-17T22:56:30.998Z,94.56
2023-02-17T22:59:00.850Z,95.34
2023-02-17T23:01:27.246Z,96.87
2023-02-17T23:03:54.511Z,98.31
2023-02-17T23:06:21.813Z,98.87
2023-02-17T23:08:48.697Z,99.30
2023-02-17T23:11:15.003Z,98.42
2023-02-17T23:13:41.308Z,97.33
2023-02-17T23:16:08.043Z,96.50
2023-02-17T23:18:34.502Z,95.71
2023-02-17T23:21:00.816Z,94.11
2023-02-17T23:23:27.134Z,94.03
2023-02-17T23:25:53.457Z,92.91
2023-02-17T23:28:19.762Z,93.11
2023-02-17T23:30:47.583Z,92.59
2023-02-17T23:33:13.986Z,93.04
2023-02-17T23:35:41.303Z,92.33
2023-02-17T23:38:08.099Z,91.28
2023-02-17T23:40:34.421Z,90.86
2023-02-17T23:43:00.760Z,90.90
2023-02-17T23:45:27.088Z,89.32
2023-02-17T23:47:53.406Z,89.33
2023-02-17T23:50:19.753Z,88.39
2023-02-17T23:52:46.072Z,88.15
2023-02-17T23:55:12.386Z,89.07
2023-02-17T23:57:41.805Z,88.00
